createdAt,value
2023-04-16T00:00:29.406Z,0.82
2023-04-16T00:01:29.460Z,0.78
2023-04-16T00:02:29.636Z,0.82
2023-04-16T00:03:29.702Z,0.80
2023-04-16T00:04:29.686Z,0.86
2023-04-16T00:05:29.652Z,0.90
2023-04-16T00:06:29.642Z,0.95
2023-04-16T00:07:29.704Z,0.92
2023-04-16T00:08:29.727Z,0.94
2023-04-16T00:09:29.721Z,0.93
2023-04-16T00:10:29.780Z,0.95
2023-04-16T00:11:29.819Z,0.97
2023-04-16T00:12:29.841Z,0.96
2023-04-16T00:13:29.835Z,0.98
2023-04-16T00:14:29.913Z,0.98
2023-04-16T00:15:29.919Z,0.92
2023-04-16T00:16:29.930Z,0.96
2023-04-16T00:17:29.986Z,0.98
2023-04-16T00:18:29.978Z,0.94
2023-04-16T00:19:29.980Z,0.92
2023-04-16T00:20:30.112Z,0.95
2023-04-16T00:21:30.052Z,1.00
2023-04-16T00:22:30.064Z,1.05
2023-04-16T00:23:30.071Z,1.03
2023-04-16T00:24:30.085Z,1.08
2023-04-16T00:25:30.113Z,1.07
2023-04-16T00:26:30.133Z,1.11
2023-04-16T00:27:30.127Z,1.11
2023-04-16T00:28:30.155Z,1.10
2023-04-16T00:29:30.211Z,1.10
2023-04-16T00:30:30.222Z,1.14
2023-04-16T00:31:30.391Z,1.10
2023-04-16T00:32:30.303Z,1.05
2023-04-16T00:33:30.285Z,1.06
2023-04-16T00:34:30.295Z,0.95
2023-04-16T00:35:30.298Z,1.00
2023-04-16T00:36:30.353Z,0.98
2023-04-16T00:37:30.378Z,1.01
2023-04-16T00:38:30.449Z,0.98
2023-04-16T00:39:30.455Z,1.01
2023-04-16T00:40:30.432Z,1.02
2023-04-16T00:41:30.441Z,0.99
2023-04-16T00:42:30.545Z,1.01
2023-04-16T00:43:30.467Z,1.05
2023-04-16T00:44:30.522Z,1.09
2023-04-16T00:45:30.576Z,1.05
2023-04-16T00:46:30.615Z,1.05
2023-04-16T00:47:30.627Z,0.92
2023-04-16T00:48:30.592Z,0.93
2023-04-16T00:49:30.658Z,0.91
2023-04-16T00:50:30.601Z,0.88
2023-04-16T00:51:30.616Z,0.95
2023-04-16T00:52:30.602Z,0.91
2023-04-16T00:53:30.635Z,0.96
2023-04-16T00:54:30.625Z,0.96
2023-04-16T00:55:30.658Z,0.95
2023-04-16T00:56:30.686Z,0.98
2023-04-16T00:57:30.642Z,0.93
2023-04-16T00:58:30.652Z,0.92
2023-04-16T00:59:30.656Z,0.93
2023-04-16T01:00:30.678Z,0.95
2023-04-16T01:01:30.668Z,0.98
2023-04-16T01:02:30.751Z,0.99
2023-04-16T01:03:30.886Z,0.98
2023-04-16T01:04:30.827Z,1.01
2023-04-16T01:05:30.587Z,0.95
2023-04-16T01:06:30.608Z,1.01
2023-04-16T01:07:30.627Z,0.98
2023-04-16T01:08:30.619Z,0.96
2023-04-16T01:09:30.636Z,0.99
2023-04-16T01:10:30.712Z,0.98
2023-04-16T01:11:30.557Z,1.01
2023-04-16T01:12:30.640Z,1.04
2023-04-16T01:13:30.607Z,1.05
2023-04-16T01:14:30.630Z,1.10
2023-04-16T01:15:30.587Z,1.10
2023-04-16T01:16:30.639Z,1.08
2023-04-16T01:17:30.593Z,1.10
2023-04-16T01:18:30.543Z,1.14
2023-04-16T01:19:30.600Z,1.17
2023-04-16T01:20:30.603Z,1.16
2023-04-16T01:21:30.565Z,1.26
2023-04-16T01:22:30.541Z,1.18
2023-04-16T01:23:30.578Z,1.16
2023-04-16T01:24:30.591Z,1.21
2023-04-16T01:25:30.545Z,1.22
2023-04-16T01:26:30.533Z,1.24
2023-04-16T01:27:30.549Z,1.25
2023-04-16T01:28:30.563Z,1.27
2023-04-16T01:29:30.553Z,1.27
2023-04-16T01:30:30.535Z,1.26
2023-04-16T01:31:30.625Z,1.27
2023-04-16T01:32:30.659Z,1.24
2023-04-16T01:33:30.547Z,1.28
2023-04-16T01:34:30.569Z,1.31
2023-04-16T01:35:30.580Z,1.36
2023-04-16T01:36:30.506Z,1.30
2023-04-16T01:37:30.577Z,1.27
2023-04-16T01:38:30.513Z,1.23
2023-04-16T01:39:30.591Z,1.18
2023-04-16T01:40:30.533Z,1.16
2023-04-16T01:41:30.553Z,1.15
2023-04-16T01:42:30.525Z,1.12
2023-04-16T01:43:30.619Z,1.16
2023-04-16T01:44:30.522Z,1.15
2023-04-16T01:45:30.563Z,1.12
2023-04-16T01:46:30.572Z,1.10
2023-04-16T01:47:30.573Z,1.15
2023-04-16T01:48:30.539Z,1.12
2023-04-16T01:49:30.534Z,1.12
2023-04-16T01:50:30.566Z,1.16
2023-04-16T01:51:30.571Z,1.11
2023-04-16T01:52:30.570Z,1.09
2023-04-16T01:53:30.541Z,1.10
2023-04-16T01:54:30.589Z,1.06
2023-04-16T01:55:30.583Z,1.11
2023-04-16T01:56:30.598Z,1.09
2023-04-16T01:57:30.571Z,1.10
2023-04-16T01:58:30.644Z,1.03
2023-04-16T01:59:30.638Z,1.05
2023-04-16T02:00:30.561Z,1.06
2023-04-16T02:01:30.654Z,1.07
2023-04-16T02:02:30.667Z,1.06
2023-04-16T02:03:30.744Z,1.02
2023-04-16T02:04:30.601Z,1.03
2023-04-16T02:05:30.582Z,1.14
2023-04-16T02:06:30.599Z,1.07
2023-04-16T02:07:30.602Z,1.10
2023-04-16T02:08:30.598Z,1.08
2023-04-16T02:09:30.618Z,1.10
2023-04-16T02:10:30.618Z,1.07
2023-04-16T02:11:30.650Z,1.03
2023-04-16T02:12:30.630Z,1.02
2023-04-16T02:13:30.599Z,0.95
2023-04-16T02:14:30.619Z,0.96
2023-04-16T02:15:30.668Z,1.00
2023-04-16T02:16:30.664Z,0.98
2023-04-16T02:17:30.682Z,1.00
2023-04-16T02:18:30.686Z,1.06
2023-04-16T02:19:30.648Z,1.06
2023-04-16T02:20:30.651Z,1.04
2023-04-16T02:21:30.665Z,1.07
2023-04-16T02:22:30.668Z,1.01
2023-04-16T02:23:30.678Z,1.07
2023-04-16T02:24:30.725Z,1.06
2023-04-16T02:25:30.688Z,1.01
2023-04-16T02:26:30.710Z,1.07
2023-04-16T02:27:30.709Z,1.03
2023-04-16T02:28:30.816Z,1.08
2023-04-16T02:29:30.725Z,1.03
2023-04-16T02:30:30.717Z,1.03
2023-04-16T02:31:30.761Z,1.00
2023-04-16T02:32:30.783Z,1.00
2023-04-16T02:33:30.744Z,1.02
2023-04-16T02:34:30.751Z,1.02
2023-04-16T02:35:30.711Z,1.00
2023-04-16T02:36:30.767Z,0.97
2023-04-16T02:37:30.771Z,0.97
2023-04-16T02:38:30.791Z,0.96
2023-04-16T02:39:30.804Z,0.91
2023-04-16T02:40:30.743Z,0.90
2023-04-16T02:41:30.801Z,0.87
2023-04-16T02:42:30.811Z,0.85
2023-04-16T02:43:30.802Z,0.91
2023-04-16T02:44:30.762Z,0.88
2023-04-16T02:45:30.790Z,0.83
2023-04-16T02:46:30.938Z,0.80
2023-04-16T02:47:30.860Z,0.81
2023-04-16T02:48:30.804Z,0.79
2023-04-16T02:49:30.850Z,0.86
2023-04-16T02:50:30.815Z,0.85
2023-04-16T02:51:30.882Z,0.84
2023-04-16T02:52:30.864Z,0.85
2023-04-16T02:53:30.887Z,0.88
2023-04-16T02:54:30.885Z,0.89
2023-04-16T02:55:30.902Z,0.92
2023-04-16T02:56:30.848Z,0.92
2023-04-16T02:57:30.922Z,0.95
2023-04-16T02:58:30.909Z,0.95
2023-04-16T02:59:30.926Z,0.94
2023-04-16T03:00:30.975Z,1.00
2023-04-16T03:01:31.009Z,0.96
2023-04-16T03:02:31.142Z,1.00
2023-04-16T03:03:30.999Z,1.03
2023-04-16T03:04:31.040Z,0.96
2023-04-16T03:05:31.001Z,1.02
2023-04-16T03:06:30.993Z,1.03
2023-04-16T03:07:31.034Z,1.05
2023-04-16T03:08:31.018Z,0.99
2023-04-16T03:09:31.036Z,1.04
2023-04-16T03:10:31.040Z,0.99
2023-04-16T03:11:31.043Z,1.07
2023-04-16T03:12:31.109Z,1.10
2023-04-16T03:13:31.065Z,1.06
2023-04-16T03:14:31.130Z,1.14
2023-04-16T03:15:31.183Z,1.05
2023-04-16T03:16:31.127Z,1.07
2023-04-16T03:17:31.161Z,1.04
2023-04-16T03:18:31.139Z,1.01
2023-04-16T03:19:31.159Z,1.09
2023-04-16T03:20:31.186Z,1.14
2023-04-16T03:21:31.189Z,1.10
2023-04-16T03:22:31.183Z,1.09
2023-04-16T03:23:31.188Z,1.05
2023-04-16T03:24:31.204Z,1.13
2023-04-16T03:25:31.190Z,1.15
2023-04-16T03:26:31.266Z,1.15
2023-04-16T03:27:31.249Z,1.16
2023-04-16T03:28:31.252Z,1.14
2023-04-16T03:29:31.240Z,1.14
2023-04-16T03:30:31.287Z,1.18
2023-04-16T03:31:31.349Z,1.17
2023-04-16T03:32:31.353Z,1.20
2023-04-16T03:33:31.313Z,1.27
2023-04-16T03:34:31.289Z,1.29
2023-04-16T03:35:31.309Z,1.24
2023-04-16T03:36:31.379Z,1.29
2023-04-16T03:37:31.388Z,1.30
2023-04-16T03:38:31.390Z,1.34
2023-04-16T03:39:31.378Z,1.36
2023-04-16T03:40:31.401Z,1.42
2023-04-16T03:41:31.421Z,1.36
2023-04-16T03:42:31.416Z,1.38
2023-04-16T03:43:31.436Z,1.38
2023-04-16T03:44:31.416Z,1.43
2023-04-16T03:45:31.466Z,1.34
2023-04-16T03:46:31.466Z,1.30
2023-04-16T03:47:31.507Z,1.36
2023-04-16T03:48:31.467Z,1.26
2023-04-16T03:49:31.466Z,1.29
2023-04-16T03:50:31.468Z,1.31
2023-04-16T03:51:31.469Z,1.24
2023-04-16T03:52:31.487Z,1.30
2023-04-16T03:53:31.493Z,1.25
2023-04-16T03:54:31.485Z,1.27
2023-04-16T03:55:31.504Z,1.32
2023-04-16T03:56:31.520Z,1.35
2023-04-16T03:57:31.502Z,1.30
2023-04-16T03:58:31.554Z,1.41
2023-04-16T03:59:31.532Z,1.35
2023-04-16T04:00:31.542Z,1.42
2023-04-16T04:01:31.549Z,1.44
2023-04-16T04:02:31.682Z,1.46
2023-04-16T04:03:31.644Z,1.52
2023-04-16T04:04:31.630Z,1.68
2023-04-16T04:05:31.608Z,1.60
2023-04-16T04:06:31.572Z,1.62
2023-04-16T04:07:31.647Z,1.57
2023-04-16T04:08:31.647Z,1.60
2023-04-16T04:09:31.651Z,1.62
2023-04-16T04:10:31.722Z,1.62
2023-04-16T04:11:31.604Z,1.58
2023-04-16T04:12:31.622Z,1.49
2023-04-16T04:13:31.656Z,1.46
2023-04-16T04:14:31.651Z,1.53
2023-04-16T04:15:31.685Z,1.51
2023-04-16T04:16:31.702Z,1.53
2023-04-16T04:17:31.691Z,1.63
2023-04-16T04:18:31.657Z,1.64
2023-04-16T04:19:31.716Z,1.61
2023-04-16T04:20:31.676Z,1.59
2023-04-16T04:21:31.688Z,1.69
2023-04-16T04:22:31.670Z,1.71
2023-04-16T04:23:31.710Z,1.76
2023-04-16T04:24:31.800Z,1.78
2023-04-16T04:25:31.701Z,1.82
2023-04-16T04:26:31.785Z,1.81
2023-04-16T04:27:31.721Z,1.78
2023-04-16T04:28:31.728Z,1.89
2023-04-16T04:29:31.750Z,1.95
2023-04-16T04:30:31.778Z,1.87
2023-04-16T04:31:31.782Z,1.82
2023-04-16T04:32:31.769Z,1.85
2023-04-16T04:33:31.767Z,1.70
2023-04-16T04:34:31.761Z,1.81
2023-04-16T04:35:31.785Z,1.86
2023-04-16T04:36:31.786Z,1.92
2023-04-16T04:37:31.747Z,1.83
2023-04-16T04:38:31.795Z,1.81
2023-04-16T04:39:31.813Z,1.74
2023-04-16T04:40:31.754Z,1.89
2023-04-16T04:41:31.771Z,1.95
2023-04-16T04:42:31.811Z,1.85
2023-04-16T04:43:31.770Z,1.78
2023-04-16T04:44:31.768Z,1.86
2023-04-16T04:45:32.192Z,1.84
2023-04-16T04:46:31.801Z,1.79
2023-04-16T04:47:31.827Z,1.81
2023-04-16T04:48:31.798Z,1.77
2023-04-16T04:49:31.795Z,1.73
2023-04-16T04:50:31.822Z,1.72
2023-04-16T04:51:31.792Z,1.60
2023-04-16T04:52:31.784Z,1.63
2023-04-16T04:53:31.817Z,1.52
2023-04-16T04:54:31.828Z,1.51
2023-04-16T04:55:31.852Z,1.52
2023-04-16T04:56:31.824Z,1.46
2023-04-16T04:57:31.815Z,1.51
2023-04-16T04:58:31.824Z,1.48
2023-04-16T04:59:31.828Z,1.40
2023-04-16T05:00:31.788Z,1.44
2023-04-16T05:01:31.812Z,1.41
2023-04-16T05:02:31.876Z,1.37
2023-04-16T05:03:31.913Z,1.39
2023-04-16T05:04:31.812Z,1.38
2023-04-16T05:05:31.798Z,1.42
2023-04-16T05:06:31.831Z,1.45
2023-04-16T05:07:31.798Z,1.50
2023-04-16T05:08:31.805Z,1.45
2023-04-16T05:09:31.809Z,1.49
2023-04-16T05:10:31.809Z,1.54
2023-04-16T05:11:31.760Z,1.50
2023-04-16T05:12:31.818Z,1.60
2023-04-16T05:13:31.841Z,1.58
2023-04-16T05:14:31.891Z,1.59
2023-04-16T05:15:31.841Z,1.57
2023-04-16T05:16:31.862Z,1.51
2023-04-16T05:17:31.871Z,1.50
2023-04-16T05:18:31.799Z,1.56
2023-04-16T05:19:31.827Z,1.61
2023-04-16T05:20:31.813Z,1.52
2023-04-16T05:21:31.813Z,1.51
2023-04-16T05:22:31.758Z,1.56
2023-04-16T05:23:31.941Z,1.49
2023-04-16T05:24:31.799Z,1.48
2023-04-16T05:25:31.825Z,1.50
2023-04-16T05:26:31.821Z,1.55
2023-04-16T05:27:31.783Z,1.46
2023-04-16T05:28:31.779Z,1.47
2023-04-16T05:29:31.852Z,1.41
2023-04-16T05:30:31.864Z,1.47
2023-04-16T05:31:31.853Z,1.36
2023-04-16T05:32:31.838Z,1.30
2023-04-16T05:33:31.800Z,1.19
2023-04-16T05:34:31.780Z,1.24
2023-04-16T05:35:31.761Z,1.21
2023-04-16T05:36:31.783Z,1.19
2023-04-16T05:37:31.808Z,1.11
2023-04-16T05:38:31.756Z,1.11
2023-04-16T05:39:31.801Z,1.16
2023-04-16T05:40:31.789Z,1.18
2023-04-16T05:41:31.832Z,1.14
2023-04-16T05:42:31.809Z,1.22
2023-04-16T05:43:31.739Z,1.19
2023-04-16T05:44:31.760Z,1.25
2023-04-16T05:45:31.828Z,1.30
2023-04-16T05:46:31.793Z,1.39
2023-04-16T05:47:31.821Z,1.42
2023-04-16T05:48:31.766Z,1.38
2023-04-16T05:49:31.752Z,1.37
2023-04-16T05:50:31.779Z,1.34
2023-04-16T05:51:31.716Z,1.38
2023-04-16T05:52:31.727Z,1.30
2023-04-16T05:53:31.729Z,1.34
2023-04-16T05:54:31.748Z,1.34
2023-04-16T05:55:31.739Z,1.24
2023-04-16T05:56:31.742Z,1.28
2023-04-16T05:57:31.744Z,1.27
2023-04-16T05:58:31.729Z,1.25
2023-04-16T05:59:31.721Z,1.32
2023-04-16T06:00:31.682Z,1.24
2023-04-16T06:01:34.245Z,1.23
2023-04-16T06:02:32.127Z,1.29
2023-04-16T06:03:32.066Z,1.26
2023-04-16T06:04:31.962Z,1.31
2023-04-16T06:05:32.026Z,1.33
2023-04-16T06:06:31.918Z,1.41
2023-04-16T06:07:31.978Z,1.33
2023-04-16T06:08:32.004Z,1.34
2023-04-16T06:09:31.934Z,1.34
2023-04-16T06:10:31.916Z,1.40
2023-04-16T06:11:31.956Z,1.36
2023-04-16T06:12:32.021Z,1.36
2023-04-16T06:13:31.955Z,1.34
2023-04-16T06:14:31.960Z,1.37
2023-04-16T06:15:31.938Z,1.29
2023-04-16T06:16:31.984Z,1.32
2023-04-16T06:17:32.056Z,1.31
2023-04-16T06:18:31.953Z,1.35
2023-04-16T06:19:32.015Z,1.39
2023-04-16T06:20:32.019Z,1.42
2023-04-16T06:21:32.109Z,1.46
2023-04-16T06:22:32.084Z,1.48
2023-04-16T06:23:32.078Z,1.50
2023-04-16T06:24:32.096Z,1.47
2023-04-16T06:25:32.103Z,1.48
2023-04-16T06:26:32.134Z,1.59
2023-04-16T06:27:32.210Z,1.56
2023-04-16T06:28:32.347Z,1.54
2023-04-16T06:29:40.445Z,1.47
2023-04-16T06:30:33.312Z,1.44
2023-04-16T06:31:32.797Z,1.47
2023-04-16T06:32:32.386Z,1.48
2023-04-16T06:33:32.300Z,1.54
2023-04-16T06:34:32.263Z,1.54
2023-04-16T06:35:32.317Z,1.46
2023-04-16T06:36:32.293Z,1.51
2023-04-16T06:37:32.292Z,1.61
2023-04-16T06:38:32.307Z,1.64
2023-04-16T06:39:32.289Z,1.70
2023-04-16T06:40:32.417Z,1.66
2023-04-16T06:41:32.411Z,1.75
2023-04-16T06:42:32.458Z,1.86
2023-04-16T06:43:32.480Z,1.94
2023-04-16T06:44:32.560Z,1.93
2023-04-16T06:45:32.590Z,1.95
2023-04-16T06:46:32.674Z,2.01
2023-04-16T06:47:32.713Z,2.06
2023-04-16T06:48:32.768Z,1.98
2023-04-16T06:49:32.811Z,1.99
2023-04-16T06:50:32.909Z,1.98
2023-04-16T06:51:32.936Z,2.07
2023-04-16T06:52:33.000Z,2.09
2023-04-16T06:53:33.048Z,2.06
2023-04-16T06:54:33.103Z,2.11
2023-04-16T06:55:33.175Z,2.04
2023-04-16T06:56:33.242Z,2.08
2023-04-16T06:57:34.649Z,2.10
2023-04-16T06:58:33.344Z,2.08
2023-04-16T06:59:33.419Z,2.10
2023-04-16T07:00:33.558Z,2.15
2023-04-16T07:01:33.613Z,2.10
2023-04-16T07:02:33.705Z,2.12
2023-04-16T07:03:33.759Z,2.12
2023-04-16T07:04:33.716Z,2.09
2023-04-16T07:05:33.793Z,2.17
2023-04-16T07:06:33.849Z,2.19
2023-04-16T07:07:33.917Z,2.16
2023-04-16T07:08:33.947Z,2.16
2023-04-16T07:09:34.058Z,2.16
2023-04-16T07:10:34.075Z,2.13
2023-04-16T07:11:34.148Z,2.01
2023-04-16T07:12:34.310Z,2.10
2023-04-16T07:13:34.316Z,2.01
2023-04-16T07:14:34.404Z,1.97
2023-04-16T07:15:34.412Z,1.98
2023-04-16T07:16:34.560Z,1.96
2023-04-16T07:17:34.537Z,1.90
2023-04-16T07:18:34.626Z,1.97
2023-04-16T07:19:34.666Z,1.71
2023-04-16T07:20:34.677Z,1.78
2023-04-16T07:21:34.756Z,1.71
2023-04-16T07:22:34.959Z,1.66
2023-04-16T07:23:34.874Z,1.68
2023-04-16T07:24:34.949Z,1.59
2023-04-16T07:25:35.016Z,1.68
2023-04-16T07:26:35.072Z,1.52
2023-04-16T07:27:35.205Z,1.51
2023-04-16T07:28:35.213Z,1.36
2023-04-16T07:29:35.262Z,1.34
2023-04-16T07:30:35.409Z,1.24
2023-04-16T07:31:35.392Z,1.25
2023-04-16T07:32:35.494Z,1.24
2023-04-16T07:33:35.474Z,1.21
2023-04-16T07:34:35.566Z,1.19
2023-04-16T07:35:35.583Z,1.22
2023-04-16T07:36:35.656Z,1.15
2023-04-16T07:37:35.703Z,1.14
2023-04-16T07:38:35.766Z,1.09
2023-04-16T07:39:35.815Z,1.10
2023-04-16T07:40:35.896Z,1.06
2023-04-16T07:41:35.939Z,1.04
2023-04-16T07:42:35.993Z,1.00
2023-04-16T07:43:36.025Z,0.95
2023-04-16T07:44:36.117Z,0.96
2023-04-16T07:45:36.203Z,0.96
2023-04-16T07:46:46.316Z,0.93
2023-04-16T07:47:37.335Z,0.93
2023-04-16T07:48:36.289Z,0.92
2023-04-16T07:49:36.182Z,0.94
2023-04-16T07:50:36.189Z,0.91
2023-04-16T07:51:36.155Z,0.93
2023-04-16T07:52:36.209Z,0.98
2023-04-16T07:53:36.177Z,0.97
2023-04-16T07:54:36.190Z,0.99
2023-04-16T07:55:36.139Z,1.01
2023-04-16T07:56:36.205Z,1.03
2023-04-16T07:57:36.207Z,1.07
2023-04-16T07:58:36.230Z,1.11
2023-04-16T07:59:36.313Z,1.14
2023-04-16T08:00:36.347Z,1.13
2023-04-16T08:01:36.427Z,1.15
2023-04-16T08:02:36.612Z,1.15
2023-04-16T08:03:36.676Z,1.16
2023-04-16T08:04:36.668Z,1.15
2023-04-16T08:05:36.586Z,1.16
2023-04-16T08:06:36.610Z,1.14
2023-04-16T08:07:36.682Z,1.18
2023-04-16T08:08:36.706Z,1.18
2023-04-16T08:09:36.753Z,1.16
2023-04-16T08:10:36.847Z,1.22
2023-04-16T08:11:36.831Z,1.24
2023-04-16T08:12:36.916Z,1.26
2023-04-16T08:13:36.980Z,1.31
2023-04-16T08:14:36.982Z,1.34
2023-04-16T08:15:37.055Z,1.29
2023-04-16T08:16:37.086Z,1.33
2023-04-16T08:17:37.129Z,1.35
2023-04-16T08:18:37.167Z,1.41
2023-04-16T08:19:37.223Z,1.44
2023-04-16T08:20:37.281Z,1.42
2023-04-16T08:21:37.243Z,1.53
2023-04-16T08:22:37.307Z,1.48
2023-04-16T08:23:37.337Z,1.50
2023-04-16T08:24:37.386Z,1.51
2023-04-16T08:25:37.474Z,1.48
2023-04-16T08:26:37.463Z,1.43
2023-04-16T08:27:37.532Z,1.50
2023-04-16T08:28:37.568Z,1.56
2023-04-16T08:29:37.599Z,1.56
2023-04-16T08:30:52.338Z,1.54
2023-04-16T08:31:37.691Z,1.54
2023-04-16T08:32:37.642Z,1.55
2023-04-16T08:33:37.589Z,1.57
2023-04-16T08:34:37.603Z,1.58
2023-04-16T08:35:37.694Z,1.68
2023-04-16T08:36:37.589Z,1.65
2023-04-16T08:37:37.534Z,1.66
2023-04-16T08:38:37.658Z,1.64
2023-04-16T08:39:37.556Z,1.71
2023-04-16T08:40:37.569Z,1.73
2023-04-16T08:41:37.569Z,1.67
2023-04-16T08:42:37.577Z,1.73
2023-04-16T08:43:37.503Z,1.76
2023-04-16T08:44:37.498Z,1.73
2023-04-16T08:45:37.589Z,1.81
2023-04-16T08:46:37.520Z,1.78
2023-04-16T08:47:37.588Z,1.72
2023-04-16T08:48:37.528Z,1.77
2023-04-16T08:49:37.526Z,1.83
2023-04-16T08:50:37.472Z,1.85
2023-04-16T08:51:37.477Z,1.88
2023-04-16T08:52:37.509Z,1.98
2023-04-16T08:53:37.437Z,1.88
2023-04-16T08:54:37.454Z,1.86
2023-04-16T08:55:37.457Z,1.84
2023-04-16T08:56:37.463Z,1.88
2023-04-16T08:57:37.484Z,1.88
2023-04-16T08:58:37.445Z,1.80
2023-04-16T08:59:37.450Z,1.82
2023-04-16T09:00:37.448Z,1.96
2023-04-16T09:01:37.490Z,1.90
2023-04-16T09:02:37.753Z,1.79
2023-04-16T09:03:37.508Z,1.79
2023-04-16T09:04:37.523Z,1.76
2023-04-16T09:05:37.389Z,1.85
2023-04-16T09:06:37.438Z,1.94
2023-04-16T09:07:37.430Z,1.95
2023-04-16T09:08:37.354Z,2.02
2023-04-16T09:09:37.332Z,1.92
2023-04-16T09:10:37.490Z,1.95
2023-04-16T09:11:37.348Z,1.94
2023-04-16T09:12:37.318Z,1.99
2023-04-16T09:13:37.439Z,2.02
2023-04-16T09:14:37.344Z,2.03
2023-04-16T09:15:37.358Z,1.91
2023-04-16T09:16:37.399Z,1.93
2023-04-16T09:17:37.340Z,1.95
2023-04-16T09:18:37.305Z,1.92
2023-04-16T09:19:37.304Z,1.93
2023-04-16T09:20:37.283Z,1.98
2023-04-16T09:21:37.292Z,1.91
2023-04-16T09:22:37.277Z,1.91
2023-04-16T09:23:37.294Z,1.88
2023-04-16T09:24:37.265Z,1.80
2023-04-16T09:25:37.257Z,1.75
2023-04-16T09:26:37.250Z,1.79
2023-04-16T09:27:37.242Z,1.68
2023-04-16T09:28:37.227Z,1.72
2023-04-16T09:29:37.263Z,1.74
2023-04-16T09:30:37.208Z,1.71
2023-04-16T09:31:37.239Z,1.72
2023-04-16T09:32:37.283Z,1.66
2023-04-16T09:33:37.195Z,1.67
2023-04-16T09:34:37.196Z,1.65
2023-04-16T09:35:37.197Z,1.60
2023-04-16T09:36:37.200Z,1.60
2023-04-16T09:37:37.190Z,1.67
2023-04-16T09:38:37.190Z,1.64
2023-04-16T09:39:37.122Z,1.59
2023-04-16T09:40:37.139Z,1.56
2023-04-16T09:41:37.150Z,1.50
2023-04-16T09:42:37.146Z,1.46
2023-04-16T09:43:37.132Z,1.38
2023-04-16T09:44:37.138Z,1.38
2023-04-16T09:45:37.129Z,1.39
2023-04-16T09:46:37.091Z,1.40
2023-04-16T09:47:37.303Z,1.39
2023-04-16T09:48:37.092Z,1.41
2023-04-16T09:49:37.096Z,1.50
2023-04-16T09:50:37.124Z,1.48
2023-04-16T09:51:37.075Z,1.53
2023-04-16T09:52:37.113Z,1.54
2023-04-16T09:53:37.088Z,1.52
2023-04-16T09:54:37.029Z,1.54
2023-04-16T09:55:37.045Z,1.56
2023-04-16T09:56:37.061Z,1.50
2023-04-16T09:57:37.120Z,1.45
2023-04-16T09:58:37.020Z,1.40
2023-04-16T09:59:37.895Z,1.46
2023-04-16T10:00:36.976Z,1.41
2023-04-16T10:01:38.210Z,1.36
2023-04-16T10:02:37.027Z,1.39
2023-04-16T10:03:37.252Z,1.38
2023-04-16T10:04:37.024Z,1.45
2023-04-16T10:05:37.005Z,1.53
2023-04-16T10:06:37.042Z,1.51
2023-04-16T10:07:37.017Z,1.54
2023-04-16T10:08:36.924Z,1.52
2023-04-16T10:09:37.021Z,1.60
2023-04-16T10:10:36.949Z,1.54
2023-04-16T10:11:36.959Z,1.55
2023-04-16T10:12:36.946Z,1.73
2023-04-16T10:13:36.914Z,1.65
2023-04-16T10:14:36.924Z,1.63
2023-04-16T10:15:36.879Z,1.67
2023-04-16T10:16:37.018Z,1.65
2023-04-16T10:17:36.879Z,1.70
2023-04-16T10:18:36.921Z,1.73
2023-04-16T10:19:36.897Z,1.70
2023-04-16T10:20:36.854Z,1.81
2023-04-16T10:21:36.869Z,1.77
2023-04-16T10:22:36.864Z,1.89
2023-04-16T10:23:36.874Z,2.04
2023-04-16T10:24:36.924Z,2.01
2023-04-16T10:25:36.940Z,1.85
2023-04-16T10:26:37.050Z,1.87
2023-04-16T10:27:37.115Z,1.78
2023-04-16T10:28:37.183Z,2.02
2023-04-16T10:29:37.259Z,1.99
2023-04-16T10:30:37.303Z,1.93
2023-04-16T10:31:37.338Z,2.05
2023-04-16T10:32:37.449Z,1.95
2023-04-16T10:33:37.459Z,2.00
2023-04-16T10:34:37.565Z,1.88
2023-04-16T10:35:37.584Z,1.99
2023-04-16T10:36:37.722Z,1.79
2023-04-16T10:37:37.741Z,2.03
2023-04-16T10:38:37.806Z,1.76
2023-04-16T10:39:37.852Z,1.65
2023-04-16T10:40:37.966Z,1.62
2023-04-16T10:41:37.959Z,1.61
2023-04-16T10:42:38.066Z,1.63
2023-04-16T10:43:38.086Z,1.74
2023-04-16T10:44:38.132Z,1.73
2023-04-16T10:45:38.199Z,1.81
2023-04-16T10:46:38.338Z,1.82
2023-04-16T10:47:38.339Z,1.85
2023-04-16T10:48:46.768Z,1.87
2023-04-16T10:49:39.410Z,1.75
2023-04-16T10:50:38.388Z,1.70
2023-04-16T10:51:38.395Z,1.77
2023-04-16T10:52:38.342Z,1.88
2023-04-16T10:53:38.407Z,1.71
2023-04-16T10:54:38.354Z,1.81
2023-04-16T10:55:38.322Z,1.77
2023-04-16T10:56:38.444Z,1.80
2023-04-16T10:57:38.470Z,1.60
2023-04-16T10:58:38.493Z,1.59
2023-04-16T10:59:38.600Z,1.63
2023-04-16T11:00:38.600Z,1.65
2023-04-16T11:01:38.695Z,1.70
2023-04-16T11:02:38.838Z,1.63
2023-04-16T11:03:38.940Z,1.67
2023-04-16T11:04:39.078Z,1.65
2023-04-16T11:05:38.901Z,1.73
2023-04-16T11:06:38.953Z,1.66
2023-04-16T11:07:39.021Z,1.66
2023-04-16T11:08:51.209Z,1.66
2023-04-16T11:09:40.056Z,1.61
2023-04-16T11:10:39.047Z,1.67
2023-04-16T11:11:39.089Z,1.69
2023-04-16T11:12:39.129Z,1.76
2023-04-16T11:13:39.062Z,1.68
2023-04-16T11:14:39.061Z,1.66
2023-04-16T11:15:39.041Z,1.62
2023-04-16T11:16:39.015Z,1.69
2023-04-16T11:17:39.170Z,1.59
2023-04-16T11:18:41.627Z,1.57
2023-04-16T11:19:40.243Z,1.57
2023-04-16T11:20:39.100Z,1.57
2023-04-16T11:21:39.136Z,1.49
2023-04-16T11:22:39.184Z,1.50
2023-04-16T11:23:39.126Z,1.51
2023-04-16T11:24:39.057Z,1.53
2023-04-16T11:25:39.098Z,1.45
2023-04-16T11:26:39.094Z,1.40
2023-04-16T11:27:39.182Z,1.44
2023-04-16T11:28:39.195Z,1.39
2023-04-16T11:29:39.260Z,1.36
2023-04-16T11:30:39.326Z,1.40
2023-04-16T11:31:39.439Z,1.38
2023-04-16T11:32:39.522Z,1.46
2023-04-16T11:33:39.549Z,1.29
2023-04-16T11:34:39.564Z,1.37
2023-04-16T11:35:39.627Z,1.30
2023-04-16T11:36:39.659Z,1.35
2023-04-16T11:37:39.785Z,1.45
2023-04-16T11:38:39.839Z,1.37
2023-04-16T11:39:39.899Z,1.31
2023-04-16T11:40:39.963Z,1.28
2023-04-16T11:41:40.008Z,1.28
2023-04-16T11:42:40.118Z,1.38
2023-04-16T11:43:40.114Z,1.39
2023-04-16T11:44:40.187Z,1.46
2023-04-16T11:45:40.246Z,1.55
2023-04-16T11:46:40.458Z,1.57
2023-04-16T11:47:40.403Z,1.51
2023-04-16T11:48:40.445Z,1.47
2023-04-16T11:49:40.455Z,1.55
2023-04-16T11:50:40.567Z,1.52
2023-04-16T11:51:40.568Z,1.60
2023-04-16T11:52:40.656Z,1.48
2023-04-16T11:53:40.699Z,1.47
2023-04-16T11:54:40.809Z,1.56
2023-04-16T11:55:40.878Z,1.53
2023-04-16T11:56:40.933Z,1.48
2023-04-16T11:57:40.995Z,1.58
2023-04-16T11:58:43.302Z,1.57
2023-04-16T12:00:01.635Z,1.65
2023-04-16T12:00:42.143Z,1.62
2023-04-16T12:01:41.162Z,1.60
2023-04-16T12:02:41.258Z,1.60
2023-04-16T12:03:41.348Z,1.56
2023-04-16T12:04:41.212Z,1.61
2023-04-16T12:05:41.094Z,1.72
2023-04-16T12:06:41.112Z,1.67
2023-04-16T12:07:41.102Z,1.67
2023-04-16T12:08:41.193Z,1.54
2023-04-16T12:09:41.277Z,1.65
2023-04-16T12:10:41.288Z,1.53
2023-04-16T12:11:41.348Z,1.50
2023-04-16T12:12:41.418Z,1.55
2023-04-16T12:13:41.467Z,1.63
2023-04-16T12:14:41.492Z,1.58
2023-04-16T12:15:41.563Z,1.52
2023-04-16T12:16:41.660Z,1.57
2023-04-16T12:17:41.715Z,1.40
2023-04-16T12:18:41.754Z,1.46
2023-04-16T12:19:41.917Z,1.55
2023-04-16T12:20:41.863Z,1.56
2023-04-16T12:21:41.958Z,1.58
2023-04-16T12:22:41.993Z,1.53
2023-04-16T12:23:42.090Z,1.54
2023-04-16T12:24:42.152Z,1.40
2023-04-16T12:25:42.241Z,1.39
2023-04-16T12:26:42.249Z,1.31
2023-04-16T12:27:42.281Z,1.34
2023-04-16T12:28:42.376Z,1.26
2023-04-16T12:29:42.428Z,1.24
2023-04-16T12:30:42.539Z,1.26
2023-04-16T12:31:42.545Z,1.34
2023-04-16T12:32:42.792Z,1.37
2023-04-16T12:33:42.719Z,1.49
2023-04-16T12:34:48.691Z,1.38
2023-04-16T12:35:43.756Z,1.39
2023-04-16T12:36:42.749Z,1.40
2023-04-16T12:37:42.781Z,1.42
2023-04-16T12:38:42.750Z,1.44
2023-04-16T12:39:42.726Z,1.40
2023-04-16T12:40:42.710Z,1.32
2023-04-16T12:41:42.679Z,1.32
2023-04-16T12:42:42.783Z,1.40
2023-04-16T12:43:42.849Z,1.34
2023-04-16T12:44:42.909Z,1.34
2023-04-16T12:45:42.972Z,1.35
2023-04-16T12:46:43.119Z,1.24
2023-04-16T12:47:43.092Z,1.21
2023-04-16T12:48:43.181Z,1.24
2023-04-16T12:49:43.170Z,1.28
2023-04-16T12:50:43.241Z,1.19
2023-04-16T12:51:43.322Z,1.21
2023-04-16T12:52:43.360Z,1.23
2023-04-16T12:53:43.470Z,1.22
2023-04-16T12:54:43.486Z,1.16
2023-04-16T12:55:43.540Z,1.16
2023-04-16T12:56:43.904Z,1.19
2023-04-16T12:57:43.681Z,1.16
2023-04-16T12:58:43.706Z,1.14
2023-04-16T12:59:43.748Z,1.14
2023-04-16T13:00:43.911Z,1.17
2023-04-16T13:01:43.877Z,1.19
2023-04-16T13:02:44.018Z,1.29
2023-04-16T13:03:44.419Z,1.26
2023-04-16T13:04:44.096Z,1.28
2023-04-16T13:05:44.160Z,1.27
2023-04-16T13:06:44.179Z,1.25
2023-04-16T13:07:44.236Z,1.26
2023-04-16T13:08:44.295Z,1.11
2023-04-16T13:09:44.378Z,1.04
2023-04-16T13:10:44.492Z,1.14
2023-04-16T13:11:44.509Z,1.10
2023-04-16T13:12:44.598Z,1.06
2023-04-16T13:13:44.625Z,1.05
2023-04-16T13:14:45.212Z,1.07
2023-04-16T13:15:44.777Z,1.01
2023-04-16T13:16:44.828Z,0.95
2023-04-16T13:17:44.917Z,1.00
2023-04-16T13:18:44.902Z,0.97